sensor_id;sensor_type;location;lat;lon;timestamp;P1;durP1;ratioP1;P2;durP2;ratioP2
1839;SDS011;920;48.944;9.148;2023-02-23T00:01:47;23.27;;;17.70;;
1839;SDS011;920;48.944;9.148;2023-02-23T00:04:15;23.97;;;17.10;;
1839;SDS011;920;48.944;9.148;2023-02-23T00:06:43;20.10;;;17.27;;
1839;SDS011;920;48.944;9.148;2023-02-23T00:09:12;19.77;;;16.57;;
1839;SDS011;920;48.944;9.148;2023-02-23T00:11:49;19.03;;;15.87;;
1839;SDS011;920;48.944;9.148;2023-02-23T00:14:17;19.60;;;16.10;;
1839;SDS011;920;48.944;9.148;2023-02-23T00:16:51;20.27;;;14.80;;
1839;SDS011;920;48.944;9.148;2023-02-23T00:19:24;18.77;;;15.83;;
1839;SDS011;920;48.944;9.148;2023-02-23T00:21:52;19.33;;;16.27;;
1839;SDS011;920;48.944;9.148;2023-02-23T00:24:22;22.70;;;17.57;;
1839;SDS011;920;48.944;9.148;2023-02-23T00:26:52;20.53;;;17.30;;
1839;SDS011;920;48.944;9.148;2023-02-23T00:29:25;19.50;;;17.10;;
1839;SDS011;920;48.944;9.148;2023-02-23T00:31:52;20.60;;;16.53;;
1839;SDS011;920;48.944;9.148;2023-02-23T00:34:20;20.70;;;16.83;;
1839;SDS011;920;48.944;9.148;2023-02-23T00:36:48;19.30;;;16.20;;
1839;SDS011;920;48.944;9.148;2023-02-23T00:39:15;22.97;;;16.30;;
1839;SDS011;920;48.944;9.148;2023-02-23T00:41:46;20.77;;;15.93;;
1839;SDS011;920;48.944;9.148;2023-02-23T00:44:14;21.50;;;16.93;;
1839;SDS011;920;48.944;9.148;2023-02-23T00:46:41;19.60;;;16.17;;
1839;SDS011;920;48.944;9.148;2023-02-23T00:49:08;17.67;;;15.20;;
1839;SDS011;920;48.944;9.148;2023-02-23T00:51:36;19.13;;;15.20;;
1839;SDS011;920;48.944;9.148;2023-02-23T00:54:04;19.43;;;14.70;;
1839;SDS011;920;48.944;9.148;2023-02-23T00:56:50;20.40;;;14.77;;
1839;SDS011;920;48.944;9.148;2023-02-23T00:59:22;19.97;;;15.33;;
1839;SDS011;920;48.944;9.148;2023-02-23T01:01:49;18.30;;;15.47;;
1839;SDS011;920;48.944;9.148;2023-02-23T01:04:19;23.43;;;16.90;;
1839;SDS011;920;48.944;9.148;2023-02-23T01:06:47;20.00;;;15.80;;
1839;SDS011;920;48.944;9.148;2023-02-23T01:09:17;20.10;;;16.00;;
1839;SDS011;920;48.944;9.148;2023-02-23T01:11:52;19.20;;;15.53;;
1839;SDS011;920;48.944;9.148;2023-02-23T01:14:20;20.50;;;15.70;;
1839;SDS011;920;48.944;9.148;2023-02-23T01:16:49;20.50;;;14.60;;
1839;SDS011;920;48.944;9.148;2023-02-23T01:19:16;20.60;;;16.10;;
1839;SDS011;920;48.944;9.148;2023-02-23T01:21:47;22.50;;;17.17;;
1839;SDS011;920;48.944;9.148;2023-02-23T01:24:19;21.67;;;16.60;;
1839;SDS011;920;48.944;9.148;2023-02-23T01:26:46;21.00;;;16.90;;
1839;SDS011;920;48.944;9.148;2023-02-23T01:29:14;22.07;;;16.63;;
1839;SDS011;920;48.944;9.148;2023-02-23T01:31:42;21.60;;;16.37;;
1839;SDS011;920;48.944;9.148;2023-02-23T01:34:11;18.53;;;16.40;;
1839;SDS011;920;48.944;9.148;2023-02-23T01:36:43;20.90;;;15.77;;
1839;SDS011;920;48.944;9.148;2023-02-23T01:39:10;17.90;;;14.57;;
1839;SDS011;920;48.944;9.148;2023-02-23T01:41:43;21.90;;;16.67;;
1839;SDS011;920;48.944;9.148;2023-02-23T01:47:17;23.07;;;17.20;;
1839;SDS011;920;48.944;9.148;2023-02-23T01:49:49;17.30;;;15.33;;
1839;SDS011;920;48.944;9.148;2023-02-23T01:52:26;19.50;;;16.30;;
1839;SDS011;920;48.944;9.148;2023-02-23T01:54:53;18.40;;;15.47;;
1839;SDS011;920;48.944;9.148;2023-02-23T01:57:21;19.60;;;15.80;;
1839;SDS011;920;48.944;9.148;2023-02-23T01:59:51;19.50;;;16.30;;
1839;SDS011;920;48.944;9.148;2023-02-23T02:02:27;20.27;;;15.90;;
1839;SDS011;920;48.944;9.148;2023-02-23T02:04:59;17.13;;;15.00;;
1839;SDS011;920;48.944;9.148;2023-02-23T02:07:28;17.77;;;15.30;;
1839;SDS011;920;48.944;9.148;2023-02-23T02:09:59;20.93;;;16.07;;
1839;SDS011;920;48.944;9.148;2023-02-23T02:12:48;20.57;;;16.57;;
1839;SDS011;920;48.944;9.148;2023-02-23T02:15:25;21.30;;;16.00;;
1839;SDS011;920;48.944;9.148;2023-02-23T02:18:01;18.00;;;14.00;;
1839;SDS011;920;48.944;9.148;2023-02-23T02:20:43;19.07;;;15.33;;
1839;SDS011;920;48.944;9.148;2023-02-23T02:26:35;17.90;;;14.83;;
1839;SDS011;920;48.944;9.148;2023-02-23T02:29:24;19.43;;;15.03;;
1839;SDS011;920;48.944;9.148;2023-02-23T02:32:15;18.80;;;15.23;;
1839;SDS011;920;48.944;9.148;2023-02-23T02:35:01;19.87;;;16.53;;
1839;SDS011;920;48.944;9.148;2023-02-23T02:40:51;22.63;;;15.80;;
1839;SDS011;920;48.944;9.148;2023-02-23T02:43:24;17.73;;;15.10;;
1839;SDS011;920;48.944;9.148;2023-02-23T02:45:58;20.13;;;14.20;;
1839;SDS011;920;48.944;9.148;2023-02-23T02:48:35;19.47;;;15.30;;
1839;SDS011;920;48.944;9.148;2023-02-23T02:51:10;18.50;;;14.73;;
1839;SDS011;920;48.944;9.148;2023-02-23T02:53:46;17.37;;;14.97;;
1839;SDS011;920;48.944;9.148;2023-02-23T02:56:21;22.93;;;16.23;;
1839;SDS011;920;48.944;9.148;2023-02-23T02:58:57;17.53;;;14.90;;
1839;SDS011;920;48.944;9.148;2023-02-23T03:01:28;18.40;;;14.80;;
1839;SDS011;920;48.944;9.148;2023-02-23T03:04:19;20.03;;;15.70;;
1839;SDS011;920;48.944;9.148;2023-02-23T03:07:12;19.63;;;16.17;;
1839;SDS011;920;48.944;9.148;2023-02-23T03:10:07;19.57;;;15.00;;
1839;SDS011;920;48.944;9.148;2023-02-23T03:13:00;19.50;;;14.90;;
1839;SDS011;920;48.944;9.148;2023-02-23T03:15:54;18.83;;;15.77;;
1839;SDS011;920;48.944;9.148;2023-02-23T03:18:53;19.33;;;15.30;;
1839;SDS011;920;48.944;9.148;2023-02-23T03:21:44;17.57;;;14.30;;
1839;SDS011;920;48.944;9.148;2023-02-23T03:24:36;18.10;;;15.43;;
1839;SDS011;920;48.944;9.148;2023-02-23T03:27:27;16.20;;;12.80;;
1839;SDS011;920;48.944;9.148;2023-02-23T03:30:22;18.50;;;15.13;;
1839;SDS011;920;48.944;9.148;2023-02-23T03:33:13;17.57;;;14.40;;
1839;SDS011;920;48.944;9.148;2023-02-23T03:36:01;18.40;;;15.47;;
1839;SDS011;920;48.944;9.148;2023-02-23T03:38:51;19.77;;;14.70;;
1839;SDS011;920;48.944;9.148;2023-02-23T03:41:41;21.30;;;16.70;;
1839;SDS011;920;48.944;9.148;2023-02-23T03:44:33;16.70;;;14.47;;
1839;SDS011;920;48.944;9.148;2023-02-23T03:47:23;16.40;;;14.20;;
1839;SDS011;920;48.944;9.148;2023-02-23T03:50:12;16.73;;;14.17;;
1839;SDS011;920;48.944;9.148;2023-02-23T03:53:06;17.13;;;13.90;;
1839;SDS011;920;48.944;9.148;2023-02-23T03:55:58;18.27;;;14.40;;
1839;SDS011;920;48.944;9.148;2023-02-23T03:58:44;19.47;;;14.97;;
1839;SDS011;920;48.944;9.148;2023-02-23T04:01:35;18.37;;;14.13;;
1839;SDS011;920;48.944;9.148;2023-02-23T04:04:20;17.67;;;15.13;;
1839;SDS011;920;48.944;9.148;2023-02-23T04:07:08;18.50;;;15.00;;
1839;SDS011;920;48.944;9.148;2023-02-23T04:09:53;19.40;;;15.73;;
1839;SDS011;920;48.944;9.148;2023-02-23T04:12:39;18.53;;;16.20;;
1839;SDS011;920;48.944;9.148;2023-02-23T04:15:30;16.10;;;13.90;;
1839;SDS011;920;48.944;9.148;2023-02-23T04:17:58;15.30;;;13.70;;
1839;SDS011;920;48.944;9.148;2023-02-23T04:20:28;17.80;;;14.80;;
1839;SDS011;920;48.944;9.148;2023-02-23T04:22:57;18.60;;;15.30;;
1839;SDS011;920;48.944;9.148;2023-02-23T04:25:27;15.03;;;13.10;;
1839;SDS011;920;48.944;9.148;2023-02-23T04:27:55;19.93;;;15.77;;
1839;SDS011;920;48.944;9.148;2023-02-23T04:30:22;18.57;;;15.37;;
1839;SDS011;920;48.944;9.148;2023-02-23T04:32:52;20.63;;;16.70;;
1839;SDS011;920;48.944;9.148;2023-02-23T04:35:20;18.60;;;15.70;;
1839;SDS011;920;48.944;9.148;2023-02-23T04:37:49;21.77;;;16.77;;
1839;SDS011;920;48.944;9.148;2023-02-23T04:40:16;17.50;;;15.17;;
1839;SDS011;920;48.944;9.148;2023-02-23T04:42:48;20.23;;;15.80;;
1839;SDS011;920;48.944;9.148;2023-02-23T04:45:18;21.00;;;17.03;;
1839;SDS011;920;48.944;9.148;2023-02-23T04:47:46;18.23;;;15.27;;
1839;SDS011;920;48.944;9.148;2023-02-23T04:50:13;19.03;;;14.30;;
1839;SDS011;920;48.944;9.148;2023-02-23T04:52:44;17.80;;;15.43;;
1839;SDS011;920;48.944;9.148;2023-02-23T04:55:15;16.70;;;14.13;;
1839;SDS011;920;48.944;9.148;2023-02-23T04:57:43;22.00;;;17.33;;
1839;SDS011;920;48.944;9.148;2023-02-23T05:00:11;21.10;;;17.17;;
1839;SDS011;920;48.944;9.148;2023-02-23T05:02:40;17.27;;;15.47;;
1839;SDS011;920;48.944;9.148;2023-02-23T05:05:13;17.70;;;15.80;;
1839;SDS011;920;48.944;9.148;2023-02-23T05:07:42;18.33;;;15.20;;
1839;SDS011;920;48.944;9.148;2023-02-23T05:10:18;17.97;;;16.00;;
1839;SDS011;920;48.944;9.148;2023-02-23T05:12:47;19.90;;;15.57;;
1839;SDS011;920;48.944;9.148;2023-02-23T05:15:32;19.93;;;15.10;;
1839;SDS011;920;48.944;9.148;2023-02-23T05:18:01;17.73;;;15.33;;
1839;SDS011;920;48.944;9.148;2023-02-23T05:20:32;19.83;;;15.37;;
1839;SDS011;920;48.944;9.148;2023-02-23T05:23:00;21.23;;;15.70;;
1839;SDS011;920;48.944;9.148;2023-02-23T05:25:27;19.73;;;15.63;;
1839;SDS011;920;48.944;9.148;2023-02-23T05:27:54;17.57;;;14.80;;
1839;SDS011;920;48.944;9.148;2023-02-23T05:30:23;18.67;;;15.23;;
1839;SDS011;920;48.944;9.148;2023-02-23T05:32:52;19.63;;;16.47;;
1839;SDS011;920;48.944;9.148;2023-02-23T05:35:23;19.80;;;15.97;;
1839;SDS011;920;48.944;9.148;2023-02-23T05:37:52;17.00;;;14.93;;
1839;SDS011;920;48.944;9.148;2023-02-23T05:40:21;17.63;;;15.07;;
1839;SDS011;920;48.944;9.148;2023-02-23T05:42:47;16.50;;;14.70;;
1839;SDS011;920;48.944;9.148;2023-02-23T05:45:14;16.40;;;13.67;;
1839;SDS011;920;48.944;9.148;2023-02-23T05:47:41;17.63;;;15.80;;
1839;SDS011;920;48.944;9.148;2023-02-23T05:50:17;19.20;;;16.07;;
1839;SDS011;920;48.944;9.148;2023-02-23T05:52:44;18.40;;;15.60;;
1839;SDS011;920;48.944;9.148;2023-02-23T05:55:10;18.17;;;15.30;;
1839;SDS011;920;48.944;9.148;2023-02-23T05:57:39;19.53;;;15.30;;
1839;SDS011;920;48.944;9.148;2023-02-23T06:00:08;19.30;;;15.87;;
1839;SDS011;920;48.944;9.148;2023-02-23T06:02:37;17.40;;;14.93;;
1839;SDS011;920;48.944;9.148;2023-02-23T06:05:08;23.03;;;20.00;;
1839;SDS011;920;48.944;9.148;2023-02-23T06:07:35;21.33;;;18.67;;
1839;SDS011;920;48.944;9.148;2023-02-23T06:10:02;24.60;;;18.70;;
1839;SDS011;920;48.944;9.148;2023-02-23T06:12:32;23.03;;;18.13;;
1839;SDS011;920;48.944;9.148;2023-02-23T06:15:01;23.10;;;18.27;;
1839;SDS011;920;48.944;9.148;2023-02-23T06:17:28;20.77;;;18.00;;
1839;SDS011;920;48.944;9.148;2023-02-23T06:19:58;20.00;;;16.67;;
1839;SDS011;920;48.944;9.148;2023-02-23T06:22:26;22.17;;;16.17;;
1839;SDS011;920;48.944;9.148;2023-02-23T06:24:53;21.07;;;16.80;;
1839;SDS011;920;48.944;9.148;2023-02-23T06:27:22;17.57;;;15.70;;
1839;SDS011;920;48.944;9.148;2023-02-23T06:29:49;20.47;;;16.83;;
1839;SDS011;920;48.944;9.148;2023-02-23T06:32:17;20.70;;;17.20;;
1839;SDS011;920;48.944;9.148;2023-02-23T06:34:48;20.33;;;16.70;;
1839;SDS011;920;48.944;9.148;2023-02-23T06:37:17;19.93;;;15.50;;
1839;SDS011;920;48.944;9.148;2023-02-23T06:39:44;23.77;;;17.53;;
1839;SDS011;920;48.944;9.148;2023-02-23T06:42:10;19.87;;;17.07;;
1839;SDS011;920;48.944;9.148;2023-02-23T06:44:37;21.40;;;17.77;;
1839;SDS011;920;48.944;9.148;2023-02-23T06:47:04;21.00;;;18.57;;
1839;SDS011;920;48.944;9.148;2023-02-23T06:49:43;19.87;;;17.67;;
1839;SDS011;920;48.944;9.148;2023-02-23T06:52:10;22.20;;;18.63;;
1839;SDS011;920;48.944;9.148;2023-02-23T06:54:37;20.83;;;18.53;;
1839;SDS011;920;48.944;9.148;2023-02-23T06:57:05;21.50;;;18.07;;
1839;SDS011;920;48.944;9.148;2023-02-23T06:59:34;22.07;;;17.20;;
1839;SDS011;920;48.944;9.148;2023-02-23T07:02:04;19.23;;;16.70;;
1839;SDS011;920;48.944;9.148;2023-02-23T07:04:34;20.73;;;16.73;;
1839;SDS011;920;48.944;9.148;2023-02-23T07:07:02;21.60;;;17.00;;
1839;SDS011;920;48.944;9.148;2023-02-23T07:09:29;19.57;;;16.67;;
1839;SDS011;920;48.944;9.148;2023-02-23T07:11:55;20.93;;;15.60;;
1839;SDS011;920;48.944;9.148;2023-02-23T07:14:25;19.90;;;16.90;;
1839;SDS011;920;48.944;9.148;2023-02-23T07:16:54;22.47;;;16.13;;
1839;SDS011;920;48.944;9.148;2023-02-23T07:19:21;24.97;;;20.90;;
1839;SDS011;920;48.944;9.148;2023-02-23T07:21:48;32.40;;;24.17;;
1839;SDS011;920;48.944;9.148;2023-02-23T07:24:17;26.70;;;21.63;;
1839;SDS011;920;48.944;9.148;2023-02-23T07:26:44;26.80;;;22.37;;
1839;SDS011;920;48.944;9.148;2023-02-23T07:29:13;26.77;;;20.83;;
1839;SDS011;920;48.944;9.148;2023-02-23T07:31:42;22.60;;;19.60;;
1839;SDS011;920;48.944;9.148;2023-02-23T07:34:14;22.10;;;17.93;;
1839;SDS011;920;48.944;9.148;2023-02-23T07:36:44;22.93;;;19.83;;
1839;SDS011;920;48.944;9.148;2023-02-23T07:39:18;24.50;;;19.20;;
1839;SDS011;920;48.944;9.148;2023-02-23T07:41:48;22.57;;;17.63;;
1839;SDS011;920;48.944;9.148;2023-02-23T07:44:18;23.83;;;16.27;;
1839;SDS011;920;48.944;9.148;2023-02-23T07:46:53;21.40;;;16.13;;
1839;SDS011;920;48.944;9.148;2023-02-23T07:49:19;20.40;;;17.50;;
1839;SDS011;920;48.944;9.148;2023-02-23T07:51:54;21.03;;;18.50;;
1839;SDS011;920;48.944;9.148;2023-02-23T07:54:22;23.10;;;19.73;;
1839;SDS011;920;48.944;9.148;2023-02-23T07:56:54;23.23;;;18.00;;
1839;SDS011;920;48.944;9.148;2023-02-23T07:59:21;21.13;;;17.53;;
1839;SDS011;920;48.944;9.148;2023-02-23T08:01:54;19.37;;;17.03;;
1839;SDS011;920;48.944;9.148;2023-02-23T08:04:24;19.40;;;16.30;;
1839;SDS011;920;48.944;9.148;2023-02-23T08:06:54;18.97;;;15.73;;
1839;SDS011;920;48.944;9.148;2023-02-23T08:09:22;17.80;;;15.93;;
1839;SDS011;920;48.944;9.148;2023-02-23T08:11:56;21.43;;;16.50;;
1839;SDS011;920;48.944;9.148;2023-02-23T08:14:23;22.13;;;17.60;;
1839;SDS011;920;48.944;9.148;2023-02-23T08:16:54;21.90;;;18.07;;
1839;SDS011;920;48.944;9.148;2023-02-23T08:19:21;21.60;;;18.17;;
1839;SDS011;920;48.944;9.148;2023-02-23T08:21:51;23.67;;;19.40;;
1839;SDS011;920;48.944;9.148;2023-02-23T08:24:20;21.10;;;18.40;;
1839;SDS011;920;48.944;9.148;2023-02-23T08:26:48;22.23;;;16.73;;
1839;SDS011;920;48.944;9.148;2023-02-23T08:29:16;19.20;;;14.87;;
1839;SDS011;920;48.944;9.148;2023-02-23T08:31:42;21.20;;;16.83;;
1839;SDS011;920;48.944;9.148;2023-02-23T08:34:12;21.17;;;16.40;;
1839;SDS011;920;48.944;9.148;2023-02-23T08:36:42;20.93;;;16.20;;
1839;SDS011;920;48.944;9.148;2023-02-23T08:39:21;17.83;;;14.63;;
1839;SDS011;920;48.944;9.148;2023-02-23T08:41:52;18.30;;;14.67;;
1839;SDS011;920;48.944;9.148;2023-02-23T08:44:19;17.93;;;15.10;;
1839;SDS011;920;48.944;9.148;2023-02-23T08:46:46;19.93;;;15.30;;
1839;SDS011;920;48.944;9.148;2023-02-23T08:49:17;18.50;;;13.83;;
1839;SDS011;920;48.944;9.148;2023-02-23T08:51:46;16.80;;;14.13;;
1839;SDS011;920;48.944;9.148;2023-02-23T08:54:21;16.57;;;12.60;;
1839;SDS011;920;48.944;9.148;2023-02-23T08:56:48;14.83;;;13.23;;
1839;SDS011;920;48.944;9.148;2023-02-23T08:59:16;17.40;;;14.70;;
1839;SDS011;920;48.944;9.148;2023-02-23T09:01:47;15.43;;;12.97;;
1839;SDS011;920;48.944;9.148;2023-02-23T09:04:16;15.60;;;12.67;;
1839;SDS011;920;48.944;9.148;2023-02-23T09:06:48;15.63;;;12.93;;
1839;SDS011;920;48.944;9.148;2023-02-23T09:09:15;17.77;;;12.70;;
1839;SDS011;920;48.944;9.148;2023-02-23T09:11:43;14.97;;;13.13;;
1839;SDS011;920;48.944;9.148;2023-02-23T09:14:12;16.63;;;13.00;;
1839;SDS011;920;48.944;9.148;2023-02-23T09:16:41;12.63;;;10.70;;
1839;SDS011;920;48.944;9.148;2023-02-23T09:19:10;12.47;;;10.83;;
1839;SDS011;920;48.944;9.148;2023-02-23T09:21:39;17.17;;;11.20;;
1839;SDS011;920;48.944;9.148;2023-02-23T09:24:15;18.17;;;11.03;;
1839;SDS011;920;48.944;9.148;2023-02-23T09:26:52;12.30;;;10.63;;
1839;SDS011;920;48.944;9.148;2023-02-23T09:29:19;12.27;;;9.67;;
1839;SDS011;920;48.944;9.148;2023-02-23T09:31:51;11.50;;;9.10;;
1839;SDS011;920;48.944;9.148;2023-02-23T09:34:23;11.93;;;9.60;;
1839;SDS011;920;48.944;9.148;2023-02-23T09:36:51;10.23;;;8.63;;
1839;SDS011;920;48.944;9.148;2023-02-23T09:39:19;9.73;;;8.73;;
1839;SDS011;920;48.944;9.148;2023-02-23T09:45:04;12.63;;;10.30;;
1839;SDS011;920;48.944;9.148;2023-02-23T09:47:44;11.37;;;9.70;;
1839;SDS011;920;48.944;9.148;2023-02-23T09:50:23;10.20;;;8.73;;
1839;SDS011;920;48.944;9.148;2023-02-23T09:52:52;9.60;;;8.17;;
1839;SDS011;920;48.944;9.148;2023-02-23T09:55:24;9.90;;;8.90;;
1839;SDS011;920;48.944;9.148;2023-02-23T09:57:51;10.70;;;8.27;;
1839;SDS011;920;48.944;9.148;2023-02-23T10:00:21;12.37;;;9.57;;
1839;SDS011;920;48.944;9.148;2023-02-23T10:03:05;11.67;;;9.03;;
1839;SDS011;920;48.944;9.148;2023-02-23T10:05:38;10.83;;;9.50;;
1839;SDS011;920;48.944;9.148;2023-02-23T10:08:19;9.60;;;8.00;;
1839;SDS011;920;48.944;9.148;2023-02-23T10:11:02;9.33;;;7.93;;
1839;SDS011;920;48.944;9.148;2023-02-23T10:13:41;8.50;;;7.57;;
1839;SDS011;920;48.944;9.148;2023-02-23T10:16:23;8.03;;;6.80;;
1839;SDS011;920;48.944;9.148;2023-02-23T10:18:57;10.40;;;7.50;;
1839;SDS011;920;48.944;9.148;2023-02-23T10:21:39;8.60;;;6.53;;
1839;SDS011;920;48.944;9.148;2023-02-23T10:24:23;10.23;;;7.20;;
1839;SDS011;920;48.944;9.148;2023-02-23T10:26:53;8.33;;;6.80;;
1839;SDS011;920;48.944;9.148;2023-02-23T10:29:26;8.10;;;5.87;;
1839;SDS011;920;48.944;9.148;2023-02-23T10:32:02;7.60;;;5.87;;
1839;SDS011;920;48.944;9.148;2023-02-23T10:34:34;13.37;;;10.87;;
1839;SDS011;920;48.944;9.148;2023-02-23T10:37:08;13.53;;;10.67;;
1839;SDS011;920;48.944;9.148;2023-02-23T10:39:36;12.30;;;10.77;;
1839;SDS011;920;48.944;9.148;2023-02-23T10:42:06;13.10;;;10.03;;
1839;SDS011;920;48.944;9.148;2023-02-23T10:44:39;11.63;;;10.30;;
1839;SDS011;920;48.944;9.148;2023-02-23T10:47:19;10.00;;;8.40;;
1839;SDS011;920;48.944;9.148;2023-02-23T10:49:51;7.93;;;5.73;;
1839;SDS011;920;48.944;9.148;2023-02-23T10:52:25;7.37;;;5.00;;
1839;SDS011;920;48.944;9.148;2023-02-23T10:54:54;7.10;;;5.50;;
1839;SDS011;920;48.944;9.148;2023-02-23T10:57:25;8.40;;;6.77;;
1839;SDS011;920;48.944;9.148;2023-02-23T11:02:55;12.70;;;10.70;;
1839;SDS011;920;48.944;9.148;2023-02-23T11:05:30;15.40;;;11.20;;
1839;SDS011;920;48.944;9.148;2023-02-23T11:08:08;11.93;;;10.70;;
1839;SDS011;920;48.944;9.148;2023-02-23T11:10:57;11.03;;;9.63;;
1839;SDS011;920;48.944;9.148;2023-02-23T11:13:33;10.70;;;9.60;;
1839;SDS011;920;48.944;9.148;2023-02-23T11:16:03;9.57;;;8.60;;
1839;SDS011;920;48.944;9.148;2023-02-23T11:18:38;10.40;;;9.00;;
1839;SDS011;920;48.944;9.148;2023-02-23T11:21:20;10.73;;;8.87;;
1839;SDS011;920;48.944;9.148;2023-02-23T11:23:49;8.97;;;7.83;;
1839;SDS011;920;48.944;9.148;2023-02-23T11:26:19;6.57;;;5.70;;
1839;SDS011;920;48.944;9.148;2023-02-23T11:28:49;7.57;;;6.13;;
1839;SDS011;920;48.944;9.148;2023-02-23T11:31:21;7.33;;;5.53;;
1839;SDS011;920;48.944;9.148;2023-02-23T11:33:52;6.30;;;5.43;;
1839;SDS011;920;48.944;9.148;2023-02-23T11:36:26;7.37;;;5.43;;
1839;SDS011;920;48.944;9.148;2023-02-23T11:39:03;6.03;;;5.43;;
1839;SDS011;920;48.944;9.148;2023-02-23T11:41:43;5.50;;;4.70;;
1839;SDS011;920;48.944;9.148;2023-02-23T11:44:19;7.17;;;5.37;;
1839;SDS011;920;48.944;9.148;2023-02-23T11:46:52;7.10;;;4.63;;
1839;SDS011;920;48.944;9.148;2023-02-23T11:49:26;5.63;;;5.00;;
1839;SDS011;920;48.944;9.148;2023-02-23T11:52:01;7.10;;;4.30;;
1839;SDS011;920;48.944;9.148;2023-02-23T11:54:31;6.87;;;4.10;;
1839;SDS011;920;48.944;9.148;2023-02-23T11:56:58;7.13;;;4.40;;
1839;SDS011;920;48.944;9.148;2023-02-23T11:59:31;6.73;;;4.53;;
1839;SDS011;920;48.944;9.148;2023-02-23T12:02:02;6.40;;;4.17;;
1839;SDS011;920;48.944;9.148;2023-02-23T12:04:46;5.97;;;4.13;;
1839;SDS011;920;48.944;9.148;2023-02-23T12:07:35;4.93;;;3.47;;
1839;SDS011;920;48.944;9.148;2023-02-23T12:10:15;6.60;;;3.20;;
1839;SDS011;920;48.944;9.148;2023-02-23T12:12:55;4.53;;;3.20;;
1839;SDS011;920;48.944;9.148;2023-02-23T12:15:42;4.90;;;3.20;;
1839;SDS011;920;48.944;9.148;2023-02-23T12:18:21;5.90;;;3.40;;
1839;SDS011;920;48.944;9.148;2023-02-23T12:20:59;4.50;;;3.50;;
1839;SDS011;920;48.944;9.148;2023-02-23T12:23:37;5.90;;;3.53;;
1839;SDS011;920;48.944;9.148;2023-02-23T12:26:12;5.97;;;4.13;;
1839;SDS011;920;48.944;9.148;2023-02-23T12:28:47;4.80;;;3.67;;
1839;SDS011;920;48.944;9.148;2023-02-23T12:31:20;5.37;;;3.80;;
1839;SDS011;920;48.944;9.148;2023-02-23T12:33:52;5.17;;;3.27;;
1839;SDS011;920;48.944;9.148;2023-02-23T12:36:29;5.80;;;3.90;;
1839;SDS011;920;48.944;9.148;2023-02-23T12:39:05;6.93;;;3.17;;
1839;SDS011;920;48.944;9.148;2023-02-23T12:41:50;4.73;;;3.80;;
1839;SDS011;920;48.944;9.148;2023-02-23T12:44:30;5.77;;;3.30;;
1839;SDS011;920;48.944;9.148;2023-02-23T12:47:06;5.30;;;3.33;;
1839;SDS011;920;48.944;9.148;2023-02-23T12:49:43;4.73;;;3.30;;
1839;SDS011;920;48.944;9.148;2023-02-23T12:52:11;6.87;;;3.70;;
1839;SDS011;920;48.944;9.148;2023-02-23T12:54:52;7.07;;;4.00;;
1839;SDS011;920;48.944;9.148;2023-02-23T12:57:22;6.50;;;3.23;;
1839;SDS011;920;48.944;9.148;2023-02-23T13:00:08;7.23;;;3.27;;
1839;SDS011;920;48.944;9.148;2023-02-23T13:03:25;5.20;;;3.23;;
1839;SDS011;920;48.944;9.148;2023-02-23T13:06:00;6.83;;;4.03;;
1839;SDS011;920;48.944;9.148;2023-02-23T13:08:46;5.40;;;3.53;;
1839;SDS011;920;48.944;9.148;2023-02-23T13:14:51;7.07;;;4.30;;
1839;SDS011;920;48.944;9.148;2023-02-23T13:17:31;6.63;;;4.50;;
1839;SDS011;920;48.944;9.148;2023-02-23T13:20:15;9.67;;;4.53;;
1839;SDS011;920;48.944;9.148;2023-02-23T13:22:48;6.73;;;4.80;;
1839;SDS011;920;48.944;9.148;2023-02-23T13:25:21;8.40;;;5.20;;
1839;SDS011;920;48.944;9.148;2023-02-23T13:28:19;7.87;;;4.73;;
1839;SDS011;920;48.944;9.148;2023-02-23T13:31:01;6.27;;;4.67;;
1839;SDS011;920;48.944;9.148;2023-02-23T13:33:37;7.27;;;4.60;;
1839;SDS011;920;48.944;9.148;2023-02-23T13:36:07;5.97;;;5.07;;
1839;SDS011;920;48.944;9.148;2023-02-23T13:38:41;9.00;;;4.90;;
1839;SDS011;920;48.944;9.148;2023-02-23T13:41:27;5.33;;;4.50;;
1839;SDS011;920;48.944;9.148;2023-02-23T13:44:08;6.47;;;4.50;;
1839;SDS011;920;48.944;9.148;2023-02-23T13:46:49;6.43;;;4.97;;
1839;SDS011;920;48.944;9.148;2023-02-23T13:49:21;6.87;;;5.53;;
1839;SDS011;920;48.944;9.148;2023-02-23T13:52:01;6.23;;;5.07;;
1839;SDS011;920;48.944;9.148;2023-02-23T13:54:50;7.73;;;5.27;;
1839;SDS011;920;48.944;9.148;2023-02-23T13:57:20;8.90;;;4.80;;
1839;SDS011;920;48.944;9.148;2023-02-23T13:59:51;8.33;;;4.63;;
1839;SDS011;920;48.944;9.148;2023-02-23T14:05:06;6.33;;;4.40;;
1839;SDS011;920;48.944;9.148;2023-02-23T14:07:50;7.53;;;4.77;;
1839;SDS011;920;48.944;9.148;2023-02-23T14:10:27;6.50;;;4.50;;
1839;SDS011;920;48.944;9.148;2023-02-23T14:13:22;7.80;;;5.07;;
1839;SDS011;920;48.944;9.148;2023-02-23T14:16:14;6.40;;;5.13;;
1839;SDS011;920;48.944;9.148;2023-02-23T14:19:03;7.13;;;5.50;;
1839;SDS011;920;48.944;9.148;2023-02-23T14:21:46;7.77;;;5.20;;
1839;SDS011;920;48.944;9.148;2023-02-23T14:24:24;6.70;;;5.57;;
1839;SDS011;920;48.944;9.148;2023-02-23T14:27:23;6.63;;;4.90;;
1839;SDS011;920;48.944;9.148;2023-02-23T14:30:13;9.43;;;6.27;;
1839;SDS011;920;48.944;9.148;2023-02-23T14:32:49;10.53;;;5.70;;
1839;SDS011;920;48.944;9.148;2023-02-23T14:38:29;5.73;;;4.60;;
1839;SDS011;920;48.944;9.148;2023-02-23T14:41:03;7.00;;;5.47;;
1839;SDS011;920;48.944;9.148;2023-02-23T14:43:42;8.83;;;5.57;;
1839;SDS011;920;48.944;9.148;2023-02-23T14:46:19;6.80;;;5.60;;
1839;SDS011;920;48.944;9.148;2023-02-23T14:51:50;6.80;;;5.23;;
1839;SDS011;920;48.944;9.148;2023-02-23T14:54:26;8.50;;;5.60;;
1839;SDS011;920;48.944;9.148;2023-02-23T14:57:04;9.73;;;5.47;;
1839;SDS011;920;48.944;9.148;2023-02-23T14:59:38;7.90;;;6.03;;
1839;SDS011;920;48.944;9.148;2023-02-23T15:02:09;9.93;;;6.23;;
1839;SDS011;920;48.944;9.148;2023-02-23T15:04:46;9.87;;;5.97;;
1839;SDS011;920;48.944;9.148;2023-02-23T15:07:15;9.43;;;5.97;;
1839;SDS011;920;48.944;9.148;2023-02-23T15:09:49;6.70;;;5.50;;
1839;SDS011;920;48.944;9.148;2023-02-23T15:12:17;7.33;;;5.47;;
1839;SDS011;920;48.944;9.148;2023-02-23T15:14:56;10.87;;;6.10;;
1839;SDS011;920;48.944;9.148;2023-02-23T15:17:32;9.30;;;5.80;;
1839;SDS011;920;48.944;9.148;2023-02-23T15:20:10;6.40;;;4.83;;
1839;SDS011;920;48.944;9.148;2023-02-23T15:22:43;6.17;;;5.50;;
1839;SDS011;920;48.944;9.148;2023-02-23T15:25:13;13.90;;;9.87;;
1839;SDS011;920;48.944;9.148;2023-02-23T15:27:44;10.43;;;6.10;;
1839;SDS011;920;48.944;9.148;2023-02-23T15:30:17;104.63;;;42.40;;
1839;SDS011;920;48.944;9.148;2023-02-23T15:32:49;96.33;;;43.80;;
1839;SDS011;920;48.944;9.148;2023-02-23T15:35:27;56.13;;;29.23;;
1839;SDS011;920;48.944;9.148;2023-02-23T15:37:56;22.10;;;11.73;;
1839;SDS011;920;48.944;9.148;2023-02-23T15:40:24;12.17;;;8.93;;
1839;SDS011;920;48.944;9.148;2023-02-23T15:42:54;11.57;;;7.33;;
1839;SDS011;920;48.944;9.148;2023-02-23T15:45:32;8.73;;;6.10;;
1839;SDS011;920;48.944;9.148;2023-02-23T15:48:10;7.90;;;5.40;;
1839;SDS011;920;48.944;9.148;2023-02-23T15:50:51;7.00;;;5.30;;
1839;SDS011;920;48.944;9.148;2023-02-23T15:53:27;8.63;;;5.33;;
1839;SDS011;920;48.944;9.148;2023-02-23T15:56:10;10.70;;;9.13;;
1839;SDS011;920;48.944;9.148;2023-02-23T15:58:50;8.10;;;6.90;;
1839;SDS011;920;48.944;9.148;2023-02-23T16:01:20;10.73;;;6.77;;
1839;SDS011;920;48.944;9.148;2023-02-23T16:03:56;7.00;;;5.70;;
1839;SDS011;920;48.944;9.148;2023-02-23T16:06:29;9.47;;;6.67;;
1839;SDS011;920;48.944;9.148;2023-02-23T16:09:24;8.83;;;6.20;;
1839;SDS011;920;48.944;9.148;2023-02-23T16:11:53;8.60;;;5.30;;
1839;SDS011;920;48.944;9.148;2023-02-23T16:14:22;8.57;;;6.20;;
1839;SDS011;920;48.944;9.148;2023-02-23T16:16:54;8.30;;;6.20;;
1839;SDS011;920;48.944;9.148;2023-02-23T16:19:24;6.73;;;5.80;;
1839;SDS011;920;48.944;9.148;2023-02-23T16:21:56;7.70;;;5.60;;